createdAt,value
2018-07-20T00:01:52.354Z,0.40
2018-07-20T00:04:54.109Z,0.50
2018-07-20T00:07:55.847Z,0.50
2018-07-20T00:10:57.498Z,0.50
2018-07-20T00:13:59.211Z,0.60
2018-07-20T00:17:00.835Z,0.50
2018-07-20T00:20:03.537Z,0.40
2018-07-20T00:23:05.226Z,0.40
2018-07-20T00:26:07.599Z,0.40
2018-07-20T00:29:09.267Z,0.50
2018-07-20T00:32:10.967Z,0.40
2018-07-20T00:35:12.311Z,0.43
2018-07-20T00:38:13.814Z,0.60
2018-07-20T00:41:15.519Z,0.70
2018-07-20T00:44:17.186Z,0.50
2018-07-20T00:47:18.726Z,0.50
2018-07-20T00:50:20.418Z,0.40
2018-07-20T00:53:21.982Z,0.70
2018-07-20T00:56:23.501Z,0.43
2018-07-20T00:59:26.230Z,0.40
2018-07-20T01:02:28.030Z,0.50
2018-07-20T01:05:29.564Z,0.40
2018-07-20T01:08:31.396Z,0.40
2018-07-20T01:11:33.159Z,0.40
2018-07-20T01:14:34.887Z,0.40
2018-07-20T01:17:36.406Z,0.40
2018-07-20T01:20:38.237Z,0.47
2018-07-20T01:23:39.869Z,0.40
2018-07-20T01:26:41.610Z,0.50
2018-07-20T01:29:44.270Z,0.40
2018-07-20T01:32:45.808Z,0.40
2018-07-20T01:35:47.559Z,0.40
2018-07-20T01:38:49.087Z,0.40
2018-07-20T01:41:51.769Z,0.30
2018-07-20T01:44:53.386Z,0.30
2018-07-20T01:47:55.020Z,0.50
2018-07-20T01:50:58.731Z,0.40
2018-07-20T01:54:00.723Z,0.43
2018-07-20T01:57:02.287Z,0.30
2018-07-20T02:00:04.229Z,0.40
2018-07-20T02:03:06.175Z,0.60
2018-07-20T02:06:07.798Z,0.60
2018-07-20T02:09:10.909Z,0.40
2018-07-20T02:12:12.841Z,0.50
2018-07-20T02:15:14.434Z,0.43
2018-07-20T02:18:15.985Z,0.40
2018-07-20T02:21:18.370Z,0.47
2018-07-20T02:24:20.412Z,0.30
2018-07-20T02:27:21.828Z,0.40
2018-07-20T02:30:23.481Z,0.47
2018-07-20T02:33:25.014Z,0.50
2018-07-20T02:36:26.975Z,0.53
2018-07-20T02:39:28.556Z,0.50
2018-07-20T02:42:30.998Z,0.50
2018-07-20T02:45:33.183Z,0.50
2018-07-20T02:48:34.620Z,0.50
2018-07-20T02:51:36.535Z,0.50
2018-07-20T02:54:38.198Z,0.50
2018-07-20T02:57:39.802Z,0.50
2018-07-20T03:00:41.620Z,0.50
2018-07-20T03:03:43.115Z,0.40
2018-07-20T03:06:44.808Z,0.43
2018-07-20T03:09:46.472Z,0.50
2018-07-20T03:12:48.074Z,0.50
2018-07-20T03:15:49.766Z,0.70
2018-07-20T03:18:51.343Z,0.37
2018-07-20T03:21:53.279Z,0.50
2018-07-20T03:24:54.835Z,0.60
2018-07-20T03:27:56.987Z,0.70
2018-07-20T03:30:58.609Z,0.40
2018-07-20T03:34:00.298Z,0.40
2018-07-20T03:37:02.012Z,0.40
2018-07-20T03:40:03.711Z,0.50
2018-07-20T03:43:05.354Z,0.60
2018-07-20T03:46:06.941Z,0.50
2018-07-20T03:49:08.491Z,0.40
2018-07-20T03:52:10.221Z,0.60
2018-07-20T03:55:12.112Z,0.43
2018-07-20T03:58:13.650Z,0.80
2018-07-20T04:01:15.324Z,0.53
2018-07-20T04:04:16.975Z,0.70
2018-07-20T04:07:18.682Z,0.70
2018-07-20T04:10:20.437Z,0.60
2018-07-20T04:13:22.110Z,0.60
2018-07-20T04:16:23.537Z,0.60
2018-07-20T04:19:24.801Z,0.60
2018-07-20T04:22:26.625Z,0.67
2018-07-20T04:25:28.250Z,0.50
2018-07-20T04:28:30.028Z,0.60
2018-07-20T04:31:31.825Z,0.50
2018-07-20T04:34:33.338Z,0.50
2018-07-20T04:37:35.250Z,0.70
2018-07-20T04:40:36.989Z,0.50
2018-07-20T04:43:38.504Z,0.60
2018-07-20T04:46:40.819Z,0.77
2018-07-20T04:49:42.498Z,0.70
2018-07-20T04:52:44.422Z,0.57
2018-07-20T04:55:46.126Z,0.60
2018-07-20T04:58:47.759Z,0.63
2018-07-20T05:01:49.627Z,0.60
2018-07-20T05:04:51.000Z,0.70
2018-07-20T05:07:52.842Z,0.80
2018-07-20T05:10:54.630Z,0.50
2018-07-20T05:13:56.338Z,0.80
2018-07-20T05:16:57.998Z,0.60
2018-07-20T05:20:05.282Z,0.50
2018-07-20T05:23:07.274Z,0.83
2018-07-20T05:26:08.898Z,0.50
2018-07-20T05:29:10.824Z,0.70
2018-07-20T05:32:12.827Z,0.50
2018-07-20T05:35:14.565Z,0.60
2018-07-20T05:38:16.086Z,0.50
2018-07-20T05:41:17.819Z,0.80
2018-07-20T05:44:19.005Z,0.50
2018-07-20T05:47:20.743Z,0.50
2018-07-20T05:50:22.525Z,0.50
2018-07-20T05:53:24.066Z,0.60
2018-07-20T05:56:25.878Z,0.50
2018-07-20T05:59:27.386Z,0.60
2018-07-20T06:02:29.485Z,0.50
2018-07-20T06:05:30.960Z,0.40
2018-07-20T06:08:32.699Z,0.30
2018-07-20T06:11:34.272Z,0.53
2018-07-20T06:14:36.020Z,0.40
2018-07-20T06:17:37.621Z,0.47
2018-07-20T06:20:39.342Z,0.40
2018-07-20T06:23:41.127Z,0.50
2018-07-20T06:26:43.020Z,0.50
2018-07-20T06:29:44.847Z,0.50
2018-07-20T06:32:46.609Z,0.50
2018-07-20T06:35:48.250Z,0.30
2018-07-20T06:38:50.000Z,0.40
2018-07-20T06:41:51.690Z,0.50
2018-07-20T06:44:53.234Z,0.50
2018-07-20T06:47:54.952Z,0.40
2018-07-20T06:50:56.734Z,0.50
2018-07-20T06:53:58.350Z,0.43
2018-07-20T06:57:00.095Z,0.50
2018-07-20T07:00:01.977Z,0.40
2018-07-20T07:03:03.602Z,0.30
2018-07-20T07:06:10.729Z,0.40
2018-07-20T07:09:12.268Z,0.30
2018-07-20T07:12:13.962Z,0.40
2018-07-20T07:15:15.732Z,0.40
2018-07-20T07:18:17.471Z,0.30
2018-07-20T07:21:19.169Z,0.30
2018-07-20T07:24:20.859Z,0.30
2018-07-20T07:27:22.570Z,0.40
2018-07-20T07:30:24.375Z,0.30
2018-07-20T07:33:26.200Z,0.20
2018-07-20T07:36:27.897Z,0.20
2018-07-20T07:39:29.586Z,0.33
2018-07-20T07:42:31.128Z,0.30
2018-07-20T07:45:32.633Z,0.40
2018-07-20T07:48:34.469Z,0.20
2018-07-20T07:51:36.181Z,0.30
2018-07-20T07:54:37.985Z,0.30
2018-07-20T07:57:39.754Z,0.30
2018-07-20T08:00:41.410Z,0.23
2018-07-20T08:03:43.133Z,0.20
2018-07-20T08:06:44.890Z,0.30
2018-07-20T08:09:46.783Z,0.30
2018-07-20T08:12:48.705Z,0.30
2018-07-20T08:15:50.321Z,0.10
2018-07-20T08:18:52.158Z,0.20
2018-07-20T08:21:53.873Z,0.10
2018-07-20T08:24:55.683Z,0.20
2018-07-20T08:27:57.393Z,0.20
2018-07-20T08:30:59.007Z,0.10
2018-07-20T08:34:00.686Z,0.23
2018-07-20T08:37:02.360Z,0.30
2018-07-20T08:40:04.746Z,0.30
2018-07-20T08:43:06.387Z,0.27
2018-07-20T08:46:08.059Z,0.20
2018-07-20T08:49:09.763Z,0.30
2018-07-20T08:52:11.645Z,0.20
2018-07-20T08:55:13.284Z,0.30
2018-07-20T08:58:14.924Z,0.40
2018-07-20T09:01:16.518Z,0.20
2018-07-20T09:04:19.523Z,0.40
2018-07-20T09:07:21.089Z,0.30
2018-07-20T09:10:22.887Z,0.30
2018-07-20T09:13:24.739Z,0.40
2018-07-20T09:16:26.610Z,0.33
2018-07-20T09:19:28.446Z,0.30
2018-07-20T09:22:36.756Z,0.20
2018-07-20T09:25:38.369Z,0.30
2018-07-20T09:28:39.983Z,0.40
2018-07-20T09:31:41.678Z,0.50
2018-07-20T09:34:43.337Z,0.33
2018-07-20T09:37:45.097Z,0.40
2018-07-20T09:40:46.887Z,0.30
2018-07-20T09:43:48.559Z,0.50
2018-07-20T09:46:50.306Z,0.40
2018-07-20T09:49:52.051Z,0.50
2018-07-20T09:52:53.549Z,0.50
2018-07-20T09:55:55.088Z,0.37
2018-07-20T09:58:56.696Z,0.50
2018-07-20T10:01:58.486Z,0.50
2018-07-20T10:05:00.434Z,0.60
2018-07-20T10:08:02.274Z,0.50
2018-07-20T10:11:04.045Z,0.50
2018-07-20T10:14:06.326Z,0.50
2018-07-20T10:17:07.942Z,0.83
2018-07-20T10:20:09.402Z,0.70
2018-07-20T10:23:10.903Z,0.63
2018-07-20T10:26:12.599Z,0.60
2018-07-20T10:29:14.359Z,0.70
2018-07-20T10:32:15.953Z,0.60
2018-07-20T10:35:17.640Z,0.60
2018-07-20T10:38:19.282Z,0.80
2018-07-20T10:41:21.202Z,0.50
2018-07-20T10:44:22.906Z,0.53
2018-07-20T10:47:24.652Z,0.50
2018-07-20T10:50:26.279Z,0.50
2018-07-20T10:53:27.859Z,0.63
2018-07-20T10:56:29.538Z,0.70
2018-07-20T10:59:31.235Z,0.60
2018-07-20T11:02:33.006Z,0.50
2018-07-20T11:05:35.119Z,0.40
2018-07-20T11:08:36.638Z,0.60
2018-07-20T11:11:38.188Z,0.50
2018-07-20T11:14:39.842Z,0.53
2018-07-20T11:17:41.449Z,0.47
2018-07-20T11:20:44.122Z,0.50
2018-07-20T11:23:45.489Z,0.60
2018-07-20T11:26:48.240Z,0.50
2018-07-20T11:29:50.061Z,0.50
2018-07-20T11:32:51.695Z,0.50
2018-07-20T11:35:53.219Z,0.60
2018-07-20T11:38:54.871Z,0.40
2018-07-20T11:41:56.625Z,0.60
2018-07-20T11:44:58.478Z,0.50
2018-07-20T11:48:00.242Z,0.50
2018-07-20T11:51:01.940Z,0.60
2018-07-20T11:54:03.582Z,0.80
2018-07-20T11:57:04.833Z,0.50
2018-07-20T12:00:06.974Z,0.50
2018-07-20T12:03:08.528Z,0.47
2018-07-20T12:06:10.359Z,0.50
2018-07-20T12:09:12.731Z,0.50
2018-07-20T12:12:14.398Z,0.40
2018-07-20T12:15:16.088Z,0.50
2018-07-20T12:18:17.733Z,0.40
2018-07-20T12:21:19.486Z,0.50
2018-07-20T12:24:21.023Z,0.50
2018-07-20T12:27:22.701Z,0.70
2018-07-20T12:30:24.486Z,0.50
2018-07-20T12:33:26.277Z,0.70
2018-07-20T12:36:27.996Z,0.60
2018-07-20T12:39:34.710Z,0.50
2018-07-20T12:42:36.408Z,0.50
2018-07-20T12:45:38.172Z,0.50
2018-07-20T12:48:39.718Z,0.70
2018-07-20T12:51:41.482Z,0.50
2018-07-20T12:54:43.069Z,0.60
2018-07-20T12:57:44.729Z,0.63
2018-07-20T13:00:47.450Z,0.80
2018-07-20T13:03:49.145Z,0.60
2018-07-20T13:06:50.794Z,0.77
2018-07-20T13:09:52.529Z,0.70
2018-07-20T13:12:54.162Z,0.73
2018-07-20T13:15:55.821Z,0.77
2018-07-20T13:18:57.772Z,1.00
2018-07-20T13:21:59.389Z,1.10
2018-07-20T13:25:01.402Z,0.80
2018-07-20T13:28:03.246Z,1.07
2018-07-20T13:31:04.770Z,0.60
2018-07-20T13:34:06.480Z,0.90
2018-07-20T13:37:08.211Z,0.77
2018-07-20T13:40:09.685Z,0.73
2018-07-20T13:43:11.298Z,0.87
2018-07-20T13:46:13.399Z,0.63
2018-07-20T13:49:14.966Z,1.00
2018-07-20T13:52:16.981Z,1.07
2018-07-20T13:55:18.618Z,0.87
2018-07-20T13:58:20.403Z,1.27
2018-07-20T14:01:24.271Z,1.07
2018-07-20T14:04:25.818Z,1.10
2018-07-20T14:07:27.531Z,0.90
2018-07-20T14:10:29.466Z,0.70
2018-07-20T14:13:31.115Z,1.00
2018-07-20T14:16:32.916Z,0.70
2018-07-20T14:19:38.429Z,0.90
2018-07-20T14:22:40.011Z,0.90
2018-07-20T14:25:41.689Z,1.00
2018-07-20T14:28:43.306Z,0.80
2018-07-20T14:31:44.941Z,1.00
2018-07-20T14:34:47.048Z,1.20
2018-07-20T14:37:48.777Z,0.87
2018-07-20T14:40:50.632Z,0.90
2018-07-20T14:43:52.143Z,1.30
2018-07-20T14:46:53.847Z,1.10
2018-07-20T14:49:56.651Z,1.20
2018-07-20T14:52:58.346Z,1.40
2018-07-20T14:55:59.882Z,1.30
2018-07-20T14:59:01.902Z,1.23
2018-07-20T15:02:03.875Z,1.20
2018-07-20T15:05:06.079Z,1.13
2018-07-20T15:08:07.691Z,1.07
2018-07-20T15:11:09.302Z,1.13
2018-07-20T15:14:11.459Z,0.90
2018-07-20T15:17:13.063Z,1.10
2018-07-20T15:20:14.843Z,0.80
2018-07-20T15:23:17.982Z,0.70
2018-07-20T15:26:19.679Z,0.90
2018-07-20T15:29:21.548Z,0.90
2018-07-20T15:32:23.246Z,1.00
2018-07-20T15:35:24.883Z,0.90
2018-07-20T15:38:26.546Z,0.90
2018-07-20T15:41:28.232Z,1.07
2018-07-20T15:44:30.020Z,0.83
2018-07-20T15:47:31.876Z,1.00
2018-07-20T15:50:33.668Z,1.40
2018-07-20T15:53:36.278Z,0.93
2018-07-20T15:56:37.265Z,0.90
2018-07-20T15:59:39.073Z,1.10
2018-07-20T16:02:40.838Z,0.90
2018-07-20T16:05:42.578Z,0.90
2018-07-20T16:08:45.327Z,1.17
2018-07-20T16:11:47.037Z,0.97
2018-07-20T16:14:48.743Z,0.80
2018-07-20T16:17:50.406Z,0.90
2018-07-20T16:20:52.168Z,0.90
2018-07-20T16:23:53.986Z,1.00
2018-07-20T16:26:55.535Z,0.80
2018-07-20T16:29:58.238Z,0.90
2018-07-20T16:32:59.831Z,0.70
2018-07-20T16:36:01.604Z,0.80
2018-07-20T16:39:04.076Z,0.93
2018-07-20T16:42:05.864Z,1.03
2018-07-20T16:45:07.576Z,0.80
2018-07-20T16:48:09.133Z,0.90
2018-07-20T16:51:10.880Z,0.90
2018-07-20T16:54:13.015Z,0.93
2018-07-20T16:57:14.569Z,0.90
2018-07-20T17:00:16.198Z,1.07
2018-07-20T17:03:18.110Z,1.10
2018-07-20T17:06:19.662Z,1.50
2018-07-20T17:09:21.397Z,1.30
2018-07-20T17:12:23.451Z,1.30
2018-07-20T17:15:24.982Z,1.20
2018-07-20T17:18:27.038Z,1.17
2018-07-20T17:21:28.554Z,1.20
2018-07-20T17:24:30.150Z,0.87
2018-07-20T17:27:31.843Z,0.83
2018-07-20T17:30:33.430Z,0.90
2018-07-20T17:33:35.123Z,1.00
2018-07-20T17:36:42.410Z,0.90
2018-07-20T17:39:44.437Z,1.00
2018-07-20T17:42:45.999Z,1.00
2018-07-20T17:45:47.704Z,0.77
2018-07-20T17:48:49.462Z,0.90
2018-07-20T17:51:51.034Z,1.07
2018-07-20T17:54:52.654Z,0.70
2018-07-20T17:57:54.344Z,0.90
2018-07-20T18:00:56.037Z,0.90
2018-07-20T18:03:58.107Z,1.03
2018-07-20T18:06:59.573Z,0.87
2018-07-20T18:10:01.211Z,0.80
2018-07-20T18:13:03.220Z,0.80
2018-07-20T18:16:04.949Z,0.90
2018-07-20T18:19:06.554Z,1.03
2018-07-20T18:22:08.078Z,0.80
2018-07-20T18:25:09.738Z,0.90
2018-07-20T18:28:11.254Z,0.80
2018-07-20T18:31:13.330Z,0.90
2018-07-20T18:34:14.928Z,0.70
2018-07-20T18:37:16.538Z,0.67
2018-07-20T18:40:18.193Z,0.73
2018-07-20T18:43:19.870Z,0.70
2018-07-20T18:46:21.567Z,0.70
2018-07-20T18:49:23.258Z,0.90
2018-07-20T18:52:24.816Z,0.80
2018-07-20T18:55:26.502Z,1.00
2018-07-20T18:58:28.111Z,0.90
2018-07-20T19:01:30.016Z,0.97
2018-07-20T19:04:31.692Z,0.80
2018-07-20T19:07:33.175Z,2.80
2018-07-20T19:10:34.990Z,3.40
2018-07-20T19:13:36.525Z,2.47
2018-07-20T19:16:38.246Z,2.20
2018-07-20T19:19:39.816Z,2.10
2018-07-20T19:22:41.365Z,2.40
2018-07-20T19:25:43.223Z,2.20
2018-07-20T19:28:44.830Z,2.40
2018-07-20T19:31:46.485Z,2.63
2018-07-20T19:34:48.059Z,2.40
2018-07-20T19:37:49.670Z,2.50
2018-07-20T19:40:51.363Z,2.43
2018-07-20T19:43:52.909Z,2.27
2018-07-20T19:46:54.514Z,2.90
2018-07-20T19:49:56.116Z,2.83
2018-07-20T19:52:57.770Z,2.90
2018-07-20T19:55:59.550Z,2.50
2018-07-20T19:59:01.099Z,2.80
2018-07-20T20:02:02.486Z,2.60
2018-07-20T20:05:04.164Z,3.23
2018-07-20T20:08:05.919Z,2.73
2018-07-20T20:11:08.124Z,2.40
2018-07-20T20:14:10.174Z,3.10
2018-07-20T20:17:12.023Z,2.67
2018-07-20T20:20:14.545Z,2.80
2018-07-20T20:23:16.110Z,2.60
2018-07-20T20:26:17.730Z,2.93
2018-07-20T20:29:20.143Z,2.97
2018-07-20T20:32:22.037Z,2.80
2018-07-20T20:35:23.762Z,2.37
2018-07-20T20:38:25.729Z,2.50
2018-07-20T20:41:27.351Z,3.10
2018-07-20T20:44:29.382Z,2.53
2018-07-20T20:47:31.436Z,2.47
2018-07-20T20:50:33.123Z,2.83
2018-07-20T20:53:35.379Z,2.63
2018-07-20T20:56:37.105Z,3.00
2018-07-20T20:59:38.596Z,2.67
2018-07-20T21:02:40.598Z,2.83
2018-07-20T21:05:42.235Z,3.23
2018-07-20T21:08:43.919Z,2.80
2018-07-20T21:11:45.443Z,2.83
2018-07-20T21:14:47.360Z,2.53
2018-07-20T21:17:48.808Z,3.37
2018-07-20T21:20:50.339Z,3.03
2018-07-20T21:23:52.005Z,2.87
2018-07-20T21:26:53.687Z,2.80
2018-07-20T21:29:55.292Z,2.83
2018-07-20T21:32:56.975Z,3.17
2018-07-20T21:35:58.511Z,3.10
2018-07-20T21:39:00.147Z,3.27
2018-07-20T21:42:01.709Z,2.60
2018-07-20T21:45:03.331Z,2.83
2018-07-20T21:48:04.998Z,2.97
2018-07-20T21:51:06.930Z,2.77
2018-07-20T21:54:08.586Z,2.57
2018-07-20T21:57:10.199Z,3.20
2018-07-20T22:00:15.534Z,2.90
2018-07-20T22:03:17.197Z,2.37
2018-07-20T22:06:18.921Z,2.80
2018-07-20T22:09:20.845Z,2.43
2018-07-20T22:12:22.371Z,2.50
2018-07-20T22:15:24.024Z,3.17
2018-07-20T22:18:25.588Z,2.47
2018-07-20T22:21:27.427Z,2.50
2018-07-20T22:24:28.969Z,3.67
2018-07-20T22:27:30.582Z,3.07
2018-07-20T22:30:32.152Z,2.87
2018-07-20T22:33:33.779Z,3.10
2018-07-20T22:36:35.634Z,2.70
2018-07-20T22:39:37.258Z,2.63
2018-07-20T22:42:38.882Z,3.30
2018-07-20T22:45:40.937Z,3.50
2018-07-20T22:48:42.686Z,2.23
2018-07-20T22:51:44.242Z,2.50
2018-07-20T22:54:45.805Z,2.60
2018-07-20T22:57:47.831Z,3.00
2018-07-20T23:00:49.478Z,2.40
2018-07-20T23:03:51.271Z,2.80
2018-07-20T23:06:52.931Z,3.03
2018-07-20T23:09:54.205Z,2.37
2018-07-20T23:12:55.854Z,2.60
2018-07-20T23:15:57.478Z,2.43
2018-07-20T23:18:59.598Z,3.80
2018-07-20T23:22:01.042Z,3.00
2018-07-20T23:25:02.481Z,3.13
2018-07-20T23:28:04.223Z,2.83
2018-07-20T23:31:07.834Z,2.67
2018-07-20T23:34:09.317Z,2.53
2018-07-20T23:37:10.959Z,2.83
2018-07-20T23:40:27.169Z,2.47
2018-07-20T23:43:28.835Z,3.47
2018-07-20T23:46:30.310Z,2.90
2018-07-20T23:49:32.027Z,2.90
2018-07-20T23:52:33.723Z,2.77
2018-07-20T23:55:35.429Z,3.03
2018-07-20T23:58:37.251Z,3.23
